sensor_id;sensor_type;location;lat;lon;timestamp;temperature;humidity
72772;SHT30;60894;42.544;1.516;2023-08-06T00:01:56;17.62;47.41
72772;SHT30;60894;42.544;1.516;2023-08-06T00:04:23;17.45;48.85
72772;SHT30;60894;42.544;1.516;2023-08-06T00:06:50;17.30;48.45
72772;SHT30;60894;42.544;1.516;2023-08-06T00:09:17;17.31;49.46
72772;SHT30;60894;42.544;1.516;2023-08-06T00:11:45;17.23;49.39
72772;SHT30;60894;42.544;1.516;2023-08-06T00:14:13;17.13;48.05
72772;SHT30;60894;42.544;1.516;2023-08-06T00:16:43;16.73;47.09
72772;SHT30;60894;42.544;1.516;2023-08-06T00:19:11;16.90;48.98
72772;SHT30;60894;42.544;1.516;2023-08-06T00:21:38;16.97;48.00
72772;SHT30;60894;42.544;1.516;2023-08-06T00:24:05;16.93;48.65
72772;SHT30;60894;42.544;1.516;2023-08-06T00:26:32;17.06;49.54
72772;SHT30;60894;42.544;1.516;2023-08-06T00:29:00;17.38;47.47
72772;SHT30;60894;42.544;1.516;2023-08-06T00:31:28;17.47;47.97
72772;SHT30;60894;42.544;1.516;2023-08-06T00:33:55;17.32;47.80
72772;SHT30;60894;42.544;1.516;2023-08-06T00:36:22;17.04;47.37
72772;SHT30;60894;42.544;1.516;2023-08-06T00:38:49;17.14;48.73
72772;SHT30;60894;42.544;1.516;2023-08-06T00:41:16;17.23;48.16
72772;SHT30;60894;42.544;1.516;2023-08-06T00:43:43;17.07;46.47
72772;SHT30;60894;42.544;1.516;2023-08-06T00:46:11;17.03;46.07
72772;SHT30;60894;42.544;1.516;2023-08-06T00:48:39;16.99;47.74
72772;SHT30;60894;42.544;1.516;2023-08-06T00:51:07;16.96;47.88
72772;SHT30;60894;42.544;1.516;2023-08-06T00:53:35;16.83;47.77
72772;SHT30;60894;42.544;1.516;2023-08-06T00:56:02;17.02;46.51
72772;SHT30;60894;42.544;1.516;2023-08-06T00:58:30;16.63;44.55
72772;SHT30;60894;42.544;1.516;2023-08-06T01:00:57;16.35;46.22
72772;SHT30;60894;42.544;1.516;2023-08-06T01:03:26;16.24;47.48
72772;SHT30;60894;42.544;1.516;2023-08-06T01:05:53;16.60;47.18
72772;SHT30;60894;42.544;1.516;2023-08-06T01:08:30;16.66;46.23
72772;SHT30;60894;42.544;1.516;2023-08-06T01:11:16;16.90;46.74
72772;SHT30;60894;42.544;1.516;2023-08-06T01:13:47;16.69;44.54
72772;SHT30;60894;42.544;1.516;2023-08-06T01:16:15;16.53;45.12
72772;SHT30;60894;42.544;1.516;2023-08-06T01:18:47;16.60;44.61
72772;SHT30;60894;42.544;1.516;2023-08-06T01:21:16;16.41;43.14
72772;SHT30;60894;42.544;1.516;2023-08-06T01:23:45;16.29;46.05
72772;SHT30;60894;42.544;1.516;2023-08-06T01:26:17;16.08;46.69
72772;SHT30;60894;42.544;1.516;2023-08-06T01:28:51;16.30;45.41
72772;SHT30;60894;42.544;1.516;2023-08-06T01:31:22;16.59;45.37
72772;SHT30;60894;42.544;1.516;2023-08-06T01:33:49;16.70;44.47
72772;SHT30;60894;42.544;1.516;2023-08-06T01:36:19;16.48;43.88
72772;SHT30;60894;42.544;1.516;2023-08-06T01:38:46;16.45;43.51
72772;SHT30;60894;42.544;1.516;2023-08-06T01:41:13;16.70;43.40
72772;SHT30;60894;42.544;1.516;2023-08-06T01:43:41;16.45;43.60
72772;SHT30;60894;42.544;1.516;2023-08-06T01:46:08;16.59;42.76
72772;SHT30;60894;42.544;1.516;2023-08-06T01:48:35;16.99;44.03
72772;SHT30;60894;42.544;1.516;2023-08-06T01:51:04;17.02;40.98
72772;SHT30;60894;42.544;1.516;2023-08-06T01:53:32;16.87;42.81
72772;SHT30;60894;42.544;1.516;2023-08-06T01:55:59;16.02;42.21
72772;SHT30;60894;42.544;1.516;2023-08-06T01:58:27;16.26;42.55
72772;SHT30;60894;42.544;1.516;2023-08-06T02:00:54;16.41;42.49
72772;SHT30;60894;42.544;1.516;2023-08-06T02:03:21;16.24;40.26
72772;SHT30;60894;42.544;1.516;2023-08-06T02:05:48;16.30;40.96
72772;SHT30;60894;42.544;1.516;2023-08-06T02:08:15;15.96;42.19
72772;SHT30;60894;42.544;1.516;2023-08-06T02:10:44;16.26;41.30
72772;SHT30;60894;42.544;1.516;2023-08-06T02:13:11;15.83;39.92
72772;SHT30;60894;42.544;1.516;2023-08-06T02:15:42;16.14;41.42
72772;SHT30;60894;42.544;1.516;2023-08-06T02:18:09;16.70;41.56
72772;SHT30;60894;42.544;1.516;2023-08-06T02:20:36;15.76;39.73
72772;SHT30;60894;42.544;1.516;2023-08-06T02:23:03;15.74;41.21
72772;SHT30;60894;42.544;1.516;2023-08-06T02:25:30;15.81;41.39
72772;SHT30;60894;42.544;1.516;2023-08-06T02:27:59;15.83;41.16
72772;SHT30;60894;42.544;1.516;2023-08-06T02:30:26;15.73;40.96
72772;SHT30;60894;42.544;1.516;2023-08-06T02:32:53;15.98;42.45
72772;SHT30;60894;42.544;1.516;2023-08-06T02:35:20;15.81;38.83
72772;SHT30;60894;42.544;1.516;2023-08-06T02:37:47;16.05;40.70
72772;SHT30;60894;42.544;1.516;2023-08-06T02:40:14;16.02;40.30
72772;SHT30;60894;42.544;1.516;2023-08-06T02:42:41;15.64;40.76
72772;SHT30;60894;42.544;1.516;2023-08-06T02:45:10;15.23;39.78
72772;SHT30;60894;42.544;1.516;2023-08-06T02:47:37;15.46;39.91
72772;SHT30;60894;42.544;1.516;2023-08-06T02:50:05;15.77;39.81
72772;SHT30;60894;42.544;1.516;2023-08-06T02:52:32;15.57;39.55
72772;SHT30;60894;42.544;1.516;2023-08-06T02:54:59;15.27;40.61
72772;SHT30;60894;42.544;1.516;2023-08-06T02:57:26;15.68;41.16
72772;SHT30;60894;42.544;1.516;2023-08-06T02:59:53;16.01;41.04
72772;SHT30;60894;42.544;1.516;2023-08-06T03:02:22;16.24;40.01
72772;SHT30;60894;42.544;1.516;2023-08-06T03:04:49;15.56;38.12
72772;SHT30;60894;42.544;1.516;2023-08-06T03:07:16;15.40;39.64
72772;SHT30;60894;42.544;1.516;2023-08-06T03:09:43;14.78;38.69
72772;SHT30;60894;42.544;1.516;2023-08-06T03:12:10;14.85;39.73
72772;SHT30;60894;42.544;1.516;2023-08-06T03:14:37;15.13;40.50
72772;SHT30;60894;42.544;1.516;2023-08-06T03:17:05;15.35;41.66
72772;SHT30;60894;42.544;1.516;2023-08-06T03:19:33;14.99;40.42
72772;SHT30;60894;42.544;1.516;2023-08-06T03:22:00;15.22;38.63
72772;SHT30;60894;42.544;1.516;2023-08-06T03:24:27;14.77;38.48
72772;SHT30;60894;42.544;1.516;2023-08-06T03:26:54;15.00;39.91
72772;SHT30;60894;42.544;1.516;2023-08-06T03:29:21;14.58;38.98
72772;SHT30;60894;42.544;1.516;2023-08-06T03:31:47;14.92;40.86
72772;SHT30;60894;42.544;1.516;2023-08-06T03:34:14;15.00;38.60
72772;SHT30;60894;42.544;1.516;2023-08-06T03:36:43;15.23;39.95
72772;SHT30;60894;42.544;1.516;2023-08-06T03:39:10;15.63;40.02
72772;SHT30;60894;42.544;1.516;2023-08-06T03:41:37;15.37;38.08
72772;SHT30;60894;42.544;1.516;2023-08-06T03:44:04;15.06;38.36
72772;SHT30;60894;42.544;1.516;2023-08-06T03:46:31;14.24;40.89
72772;SHT30;60894;42.544;1.516;2023-08-06T03:48:59;14.30;38.62
72772;SHT30;60894;42.544;1.516;2023-08-06T03:51:26;15.00;40.21
72772;SHT30;60894;42.544;1.516;2023-08-06T03:53:55;15.16;38.96
72772;SHT30;60894;42.544;1.516;2023-08-06T03:56:22;15.27;38.11
72772;SHT30;60894;42.544;1.516;2023-08-06T03:58:49;15.08;38.37
72772;SHT30;60894;42.544;1.516;2023-08-06T04:01:16;14.65;39.65
72772;SHT30;60894;42.544;1.516;2023-08-06T04:03:43;14.86;37.63
72772;SHT30;60894;42.544;1.516;2023-08-06T04:06:10;14.68;37.18
72772;SHT30;60894;42.544;1.516;2023-08-06T04:08:37;14.79;38.37
72772;SHT30;60894;42.544;1.516;2023-08-06T04:11:06;14.88;37.87
72772;SHT30;60894;42.544;1.516;2023-08-06T04:13:33;14.45;38.49
72772;SHT30;60894;42.544;1.516;2023-08-06T04:16:01;14.60;39.98
72772;SHT30;60894;42.544;1.516;2023-08-06T04:18:29;14.81;38.46
72772;SHT30;60894;42.544;1.516;2023-08-06T04:20:56;14.79;38.26
72772;SHT30;60894;42.544;1.516;2023-08-06T04:23:23;13.79;38.16
72772;SHT30;60894;42.544;1.516;2023-08-06T04:25:50;14.12;40.24
72772;SHT30;60894;42.544;1.516;2023-08-06T04:28:19;13.87;39.25
72772;SHT30;60894;42.544;1.516;2023-08-06T04:30:46;13.82;38.51
72772;SHT30;60894;42.544;1.516;2023-08-06T04:33:13;14.27;38.93
72772;SHT30;60894;42.544;1.516;2023-08-06T04:35:40;14.67;39.62
72772;SHT30;60894;42.544;1.516;2023-08-06T04:38:07;14.72;37.85
72772;SHT30;60894;42.544;1.516;2023-08-06T04:40:34;14.61;39.52
72772;SHT30;60894;42.544;1.516;2023-08-06T04:43:01;14.37;38.54
72772;SHT30;60894;42.544;1.516;2023-08-06T04:45:30;14.07;38.07
72772;SHT30;60894;42.544;1.516;2023-08-06T04:47:57;13.58;39.02
72772;SHT30;60894;42.544;1.516;2023-08-06T04:50:24;13.87;40.59
72772;SHT30;60894;42.544;1.516;2023-08-06T04:52:51;14.18;39.47
72772;SHT30;60894;42.544;1.516;2023-08-06T04:55:18;14.57;38.72
72772;SHT30;60894;42.544;1.516;2023-08-06T04:57:45;14.49;39.71
72772;SHT30;60894;42.544;1.516;2023-08-06T05:00:13;14.42;38.00
72772;SHT30;60894;42.544;1.516;2023-08-06T05:02:41;14.20;39.21
72772;SHT30;60894;42.544;1.516;2023-08-06T05:05:08;14.30;38.36
72772;SHT30;60894;42.544;1.516;2023-08-06T05:07:35;14.38;38.47
72772;SHT30;60894;42.544;1.516;2023-08-06T05:10:02;14.64;38.15
72772;SHT30;60894;42.544;1.516;2023-08-06T05:12:30;14.86;38.55
72772;SHT30;60894;42.544;1.516;2023-08-06T05:14:57;15.29;37.74
72772;SHT30;60894;42.544;1.516;2023-08-06T05:17:24;14.99;36.77
72772;SHT30;60894;42.544;1.516;2023-08-06T05:19:52;14.37;36.70
72772;SHT30;60894;42.544;1.516;2023-08-06T05:22:19;13.87;37.46
72772;SHT30;60894;42.544;1.516;2023-08-06T05:24:46;14.02;39.07
72772;SHT30;60894;42.544;1.516;2023-08-06T05:27:13;14.23;38.78
72772;SHT30;60894;42.544;1.516;2023-08-06T05:29:40;14.40;37.50
72772;SHT30;60894;42.544;1.516;2023-08-06T05:32:09;13.77;37.94
72772;SHT30;60894;42.544;1.516;2023-08-06T05:34:36;13.77;39.57
72772;SHT30;60894;42.544;1.516;2023-08-06T05:37:05;13.52;38.00
72772;SHT30;60894;42.544;1.516;2023-08-06T05:39:32;13.90;39.43
72772;SHT30;60894;42.544;1.516;2023-08-06T05:41:59;13.95;37.27
72772;SHT30;60894;42.544;1.516;2023-08-06T05:44:26;14.42;37.79
72772;SHT30;60894;42.544;1.516;2023-08-06T05:46:53;13.66;37.64
72772;SHT30;60894;42.544;1.516;2023-08-06T05:49:20;13.69;39.34
72772;SHT30;60894;42.544;1.516;2023-08-06T05:51:47;13.27;38.12
72772;SHT30;60894;42.544;1.516;2023-08-06T05:54:16;13.21;39.51
72772;SHT30;60894;42.544;1.516;2023-08-06T05:56:43;13.54;39.25
72772;SHT30;60894;42.544;1.516;2023-08-06T05:59:10;13.39;39.71
72772;SHT30;60894;42.544;1.516;2023-08-06T06:01:37;13.90;39.78
72772;SHT30;60894;42.544;1.516;2023-08-06T06:04:04;13.67;38.56
72772;SHT30;60894;42.544;1.516;2023-08-06T06:06:31;13.17;38.72
72772;SHT30;60894;42.544;1.516;2023-08-06T06:08:58;13.35;39.11
72772;SHT30;60894;42.544;1.516;2023-08-06T06:11:27;13.48;39.36
72772;SHT30;60894;42.544;1.516;2023-08-06T06:13:54;13.86;38.80
72772;SHT30;60894;42.544;1.516;2023-08-06T06:16:21;13.69;37.49
72772;SHT30;60894;42.544;1.516;2023-08-06T06:18:48;13.89;38.55
72772;SHT30;60894;42.544;1.516;2023-08-06T06:21:15;14.07;38.09
72772;SHT30;60894;42.544;1.516;2023-08-06T06:23:42;14.68;37.21
72772;SHT30;60894;42.544;1.516;2023-08-06T06:26:09;14.63;36.31
72772;SHT30;60894;42.544;1.516;2023-08-06T06:28:38;14.96;36.53
72772;SHT30;60894;42.544;1.516;2023-08-06T06:31:05;14.79;35.58
72772;SHT30;60894;42.544;1.516;2023-08-06T06:33:32;15.32;36.89
72772;SHT30;60894;42.544;1.516;2023-08-06T06:35:59;15.61;36.10
72772;SHT30;60894;42.544;1.516;2023-08-06T06:38:26;15.47;33.83
72772;SHT30;60894;42.544;1.516;2023-08-06T06:40:56;15.80;35.34
72772;SHT30;60894;42.544;1.516;2023-08-06T06:43:23;15.74;33.81
72772;SHT30;60894;42.544;1.516;2023-08-06T06:45:56;15.66;34.82
72772;SHT30;60894;42.544;1.516;2023-08-06T06:48:24;14.71;34.71
72772;SHT30;60894;42.544;1.516;2023-08-06T06:50:51;14.98;36.47
72772;SHT30;60894;42.544;1.516;2023-08-06T06:53:18;15.15;35.53
72772;SHT30;60894;42.544;1.516;2023-08-06T06:55:45;14.86;32.94
72772;SHT30;60894;42.544;1.516;2023-08-06T06:58:14;14.96;33.08
72772;SHT30;60894;42.544;1.516;2023-08-06T07:00:42;15.08;34.82
72772;SHT30;60894;42.544;1.516;2023-08-06T07:03:10;15.39;33.75
72772;SHT30;60894;42.544;1.516;2023-08-06T07:05:37;15.35;33.06
72772;SHT30;60894;42.544;1.516;2023-08-06T07:08:04;15.73;34.06
72772;SHT30;60894;42.544;1.516;2023-08-06T07:10:31;15.78;34.25
72772;SHT30;60894;42.544;1.516;2023-08-06T07:12:59;15.94;32.35
72772;SHT30;60894;42.544;1.516;2023-08-06T07:15:26;16.01;33.84
72772;SHT30;60894;42.544;1.516;2023-08-06T07:17:53;15.93;32.82
72772;SHT30;60894;42.544;1.516;2023-08-06T07:20:22;15.54;32.36
72772;SHT30;60894;42.544;1.516;2023-08-06T07:22:49;15.73;33.64
72772;SHT30;60894;42.544;1.516;2023-08-06T07:25:16;15.84;33.06
72772;SHT30;60894;42.544;1.516;2023-08-06T07:27:44;15.84;32.34
72772;SHT30;60894;42.544;1.516;2023-08-06T07:30:11;15.94;32.42
72772;SHT30;60894;42.544;1.516;2023-08-06T07:32:38;16.30;32.59
72772;SHT30;60894;42.544;1.516;2023-08-06T07:35:05;16.58;31.15
72772;SHT30;60894;42.544;1.516;2023-08-06T07:37:36;16.75;30.83
72772;SHT30;60894;42.544;1.516;2023-08-06T07:40:04;16.97;31.66
72772;SHT30;60894;42.544;1.516;2023-08-06T07:42:31;17.10;31.37
72772;SHT30;60894;42.544;1.516;2023-08-06T07:44:59;17.06;29.37
72772;SHT30;60894;42.544;1.516;2023-08-06T07:47:26;17.20;29.47
72772;SHT30;60894;42.544;1.516;2023-08-06T07:49:53;17.23;29.60
72772;SHT30;60894;42.544;1.516;2023-08-06T07:52:20;17.30;29.69
72772;SHT30;60894;42.544;1.516;2023-08-06T07:54:48;17.48;30.63
72772;SHT30;60894;42.544;1.516;2023-08-06T07:57:16;17.50;29.22
72772;SHT30;60894;42.544;1.516;2023-08-06T07:59:43;17.59;28.64
72772;SHT30;60894;42.544;1.516;2023-08-06T08:02:10;17.72;27.73
72772;SHT30;60894;42.544;1.516;2023-08-06T08:04:37;17.58;25.66
72772;SHT30;60894;42.544;1.516;2023-08-06T08:07:04;17.45;28.78
72772;SHT30;60894;42.544;1.516;2023-08-06T08:09:31;17.71;30.29
72772;SHT30;60894;42.544;1.516;2023-08-06T08:12:00;17.72;27.83
72772;SHT30;60894;42.544;1.516;2023-08-06T08:14:28;17.81;27.21
72772;SHT30;60894;42.544;1.516;2023-08-06T08:17:00;17.82;25.61
72772;SHT30;60894;42.544;1.516;2023-08-06T08:19:28;17.85;26.37
72772;SHT30;60894;42.544;1.516;2023-08-06T08:21:55;17.98;26.74
72772;SHT30;60894;42.544;1.516;2023-08-06T08:24:22;18.00;27.86
72772;SHT30;60894;42.544;1.516;2023-08-06T08:26:50;18.14;26.90
72772;SHT30;60894;42.544;1.516;2023-08-06T08:29:19;18.32;27.36
72772;SHT30;60894;42.544;1.516;2023-08-06T08:31:46;18.26;20.19
72772;SHT30;60894;42.544;1.516;2023-08-06T08:34:15;18.23;21.28
72772;SHT30;60894;42.544;1.516;2023-08-06T08:36:42;18.33;24.45
72772;SHT30;60894;42.544;1.516;2023-08-06T08:39:12;18.46;22.82
72772;SHT30;60894;42.544;1.516;2023-08-06T08:41:39;18.63;21.82
72772;SHT30;60894;42.544;1.516;2023-08-06T08:44:08;18.78;22.99
72772;SHT30;60894;42.544;1.516;2023-08-06T08:46:40;18.87;23.19
72772;SHT30;60894;42.544;1.516;2023-08-06T08:49:07;19.05;23.01
72772;SHT30;60894;42.544;1.516;2023-08-06T08:51:34;19.18;23.30
72772;SHT30;60894;42.544;1.516;2023-08-06T08:54:03;19.31;23.66
72772;SHT30;60894;42.544;1.516;2023-08-06T08:56:31;19.50;22.58
72772;SHT30;60894;42.544;1.516;2023-08-06T08:58:58;19.70;20.94
72772;SHT30;60894;42.544;1.516;2023-08-06T09:01:26;19.96;19.86
72772;SHT30;60894;42.544;1.516;2023-08-06T09:03:59;20.09;20.17
72772;SHT30;60894;42.544;1.516;2023-08-06T09:06:32;20.27;18.06
72772;SHT30;60894;42.544;1.516;2023-08-06T09:09:04;20.52;17.56
72772;SHT30;60894;42.544;1.516;2023-08-06T09:11:36;20.67;16.24
72772;SHT30;60894;42.544;1.516;2023-08-06T09:14:06;20.83;16.81
72772;SHT30;60894;42.544;1.516;2023-08-06T09:16:34;21.02;15.75
72772;SHT30;60894;42.544;1.516;2023-08-06T09:19:08;21.14;15.33
72772;SHT30;60894;42.544;1.516;2023-08-06T09:21:37;21.27;15.38
72772;SHT30;60894;42.544;1.516;2023-08-06T09:24:08;21.44;15.46
72772;SHT30;60894;42.544;1.516;2023-08-06T09:26:36;21.55;15.69
72772;SHT30;60894;42.544;1.516;2023-08-06T09:29:05;21.67;15.90
72772;SHT30;60894;42.544;1.516;2023-08-06T09:31:33;21.85;15.49
72772;SHT30;60894;42.544;1.516;2023-08-06T09:34:01;22.02;15.23
72772;SHT30;60894;42.544;1.516;2023-08-06T09:36:29;22.09;14.83
72772;SHT30;60894;42.544;1.516;2023-08-06T09:38:59;22.22;13.57
72772;SHT30;60894;42.544;1.516;2023-08-06T09:41:29;22.35;13.97
72772;SHT30;60894;42.544;1.516;2023-08-06T09:43:56;22.42;13.31
72772;SHT30;60894;42.544;1.516;2023-08-06T09:46:23;22.60;12.04
72772;SHT30;60894;42.544;1.516;2023-08-06T09:48:50;22.74;13.78
72772;SHT30;60894;42.544;1.516;2023-08-06T09:51:17;22.87;13.67
72772;SHT30;60894;42.544;1.516;2023-08-06T09:53:47;22.96;12.96
72772;SHT30;60894;42.544;1.516;2023-08-06T09:56:15;23.13;12.87
72772;SHT30;60894;42.544;1.516;2023-08-06T09:58:44;23.17;13.27
72772;SHT30;60894;42.544;1.516;2023-08-06T10:01:14;23.33;13.17
72772;SHT30;60894;42.544;1.516;2023-08-06T10:03:42;23.50;13.51
72772;SHT30;60894;42.544;1.516;2023-08-06T10:06:10;23.61;13.24
72772;SHT30;60894;42.544;1.516;2023-08-06T10:08:37;23.76;13.57
72772;SHT30;60894;42.544;1.516;2023-08-06T10:11:08;23.86;12.00
72772;SHT30;60894;42.544;1.516;2023-08-06T10:13:36;24.05;11.90
72772;SHT30;60894;42.544;1.516;2023-08-06T10:16:07;24.06;11.41
72772;SHT30;60894;42.544;1.516;2023-08-06T10:18:36;24.17;12.45
72772;SHT30;60894;42.544;1.516;2023-08-06T10:21:07;24.36;13.37
72772;SHT30;60894;42.544;1.516;2023-08-06T10:23:36;24.54;12.43
72772;SHT30;60894;42.544;1.516;2023-08-06T10:26:04;24.71;12.34
72772;SHT30;60894;42.544;1.516;2023-08-06T10:28:36;24.83;12.53
72772;SHT30;60894;42.544;1.516;2023-08-06T10:31:04;25.08;12.48
72772;SHT30;60894;42.544;1.516;2023-08-06T10:33:42;25.31;11.60
72772;SHT30;60894;42.544;1.516;2023-08-06T10:36:10;25.53;11.85
72772;SHT30;60894;42.544;1.516;2023-08-06T10:38:44;25.74;11.40
72772;SHT30;60894;42.544;1.516;2023-08-06T10:41:15;25.58;11.03
72772;SHT30;60894;42.544;1.516;2023-08-06T10:43:47;25.56;12.51
72772;SHT30;60894;42.544;1.516;2023-08-06T10:46:22;25.80;11.67
72772;SHT30;60894;42.544;1.516;2023-08-06T10:48:49;25.87;11.36
72772;SHT30;60894;42.544;1.516;2023-08-06T10:51:16;26.04;11.24
72772;SHT30;60894;42.544;1.516;2023-08-06T10:53:44;26.21;10.58
72772;SHT30;60894;42.544;1.516;2023-08-06T10:56:15;26.25;10.14
72772;SHT30;60894;42.544;1.516;2023-08-06T10:58:44;26.23;10.94
72772;SHT30;60894;42.544;1.516;2023-08-06T11:01:12;26.59;10.41
72772;SHT30;60894;42.544;1.516;2023-08-06T11:03:40;26.69;9.87
72772;SHT30;60894;42.544;1.516;2023-08-06T11:06:07;27.00;10.80
72772;SHT30;60894;42.544;1.516;2023-08-06T11:08:35;27.15;10.81
72772;SHT30;60894;42.544;1.516;2023-08-06T11:11:09;27.34;11.32
72772;SHT30;60894;42.544;1.516;2023-08-06T11:13:38;27.26;9.28
72772;SHT30;60894;42.544;1.516;2023-08-06T11:16:07;27.68;10.17
72772;SHT30;60894;42.544;1.516;2023-08-06T11:18:35;27.76;9.11
72772;SHT30;60894;42.544;1.516;2023-08-06T11:21:02;28.02;9.80
72772;SHT30;60894;42.544;1.516;2023-08-06T11:23:29;28.14;9.12
72772;SHT30;60894;42.544;1.516;2023-08-06T11:25:57;28.38;9.39
72772;SHT30;60894;42.544;1.516;2023-08-06T11:28:24;28.51;9.52
72772;SHT30;60894;42.544;1.516;2023-08-06T11:30:52;28.94;9.39
72772;SHT30;60894;42.544;1.516;2023-08-06T11:33:22;28.84;8.96
72772;SHT30;60894;42.544;1.516;2023-08-06T11:35:51;28.77;8.66
72772;SHT30;60894;42.544;1.516;2023-08-06T11:38:18;28.90;9.47
72772;SHT30;60894;42.544;1.516;2023-08-06T11:40:45;28.69;9.78
72772;SHT30;60894;42.544;1.516;2023-08-06T11:43:12;28.48;9.23
72772;SHT30;60894;42.544;1.516;2023-08-06T11:45:40;28.55;9.85
72772;SHT30;60894;42.544;1.516;2023-08-06T11:48:07;28.77;9.80
72772;SHT30;60894;42.544;1.516;2023-08-06T11:50:38;28.94;9.70
72772;SHT30;60894;42.544;1.516;2023-08-06T11:53:05;29.07;10.13
72772;SHT30;60894;42.544;1.516;2023-08-06T11:55:32;29.14;9.34
72772;SHT30;60894;42.544;1.516;2023-08-06T11:58:03;29.47;9.56
72772;SHT30;60894;42.544;1.516;2023-08-06T12:00:31;29.71;9.54
72772;SHT30;60894;42.544;1.516;2023-08-06T12:02:58;29.45;8.82
72772;SHT30;60894;42.544;1.516;2023-08-06T12:05:30;29.98;9.80
72772;SHT30;60894;42.544;1.516;2023-08-06T12:08:00;30.10;9.23
72772;SHT30;60894;42.544;1.516;2023-08-06T12:10:30;30.05;9.23
72772;SHT30;60894;42.544;1.516;2023-08-06T12:12:57;29.93;9.93
72772;SHT30;60894;42.544;1.516;2023-08-06T12:15:24;29.35;8.89
72772;SHT30;60894;42.544;1.516;2023-08-06T12:17:51;29.30;9.75
72772;SHT30;60894;42.544;1.516;2023-08-06T12:20:18;29.48;8.92
72772;SHT30;60894;42.544;1.516;2023-08-06T12:22:45;29.14;9.92
72772;SHT30;60894;42.544;1.516;2023-08-06T12:25:14;29.43;9.71
72772;SHT30;60894;42.544;1.516;2023-08-06T12:27:42;29.69;9.57
72772;SHT30;60894;42.544;1.516;2023-08-06T12:30:10;29.81;10.38
72772;SHT30;60894;42.544;1.516;2023-08-06T12:32:40;30.27;10.03
72772;SHT30;60894;42.544;1.516;2023-08-06T12:35:08;30.47;10.31
72772;SHT30;60894;42.544;1.516;2023-08-06T12:37:35;30.60;9.78
72772;SHT30;60894;42.544;1.516;2023-08-06T12:40:05;30.84;10.35
72772;SHT30;60894;42.544;1.516;2023-08-06T12:42:34;31.01;10.01
72772;SHT30;60894;42.544;1.516;2023-08-06T12:45:01;30.91;9.20
72772;SHT30;60894;42.544;1.516;2023-08-06T12:47:28;31.02;9.63
72772;SHT30;60894;42.544;1.516;2023-08-06T12:49:55;30.67;9.57
72772;SHT30;60894;42.544;1.516;2023-08-06T12:52:22;30.77;10.15
72772;SHT30;60894;42.544;1.516;2023-08-06T12:54:49;30.63;9.17
72772;SHT30;60894;42.544;1.516;2023-08-06T12:57:16;30.71;9.31
72772;SHT30;60894;42.544;1.516;2023-08-06T12:59:44;30.63;9.42
72772;SHT30;60894;42.544;1.516;2023-08-06T13:02:12;30.67;10.01
72772;SHT30;60894;42.544;1.516;2023-08-06T13:04:39;30.76;9.47
72772;SHT30;60894;42.544;1.516;2023-08-06T13:07:06;30.67;9.75
72772;SHT30;60894;42.544;1.516;2023-08-06T13:09:33;30.59;9.69
72772;SHT30;60894;42.544;1.516;2023-08-06T13:12:00;30.66;9.46
72772;SHT30;60894;42.544;1.516;2023-08-06T13:14:31;30.66;9.59
72772;SHT30;60894;42.544;1.516;2023-08-06T13:17:00;30.76;9.39
72772;SHT30;60894;42.544;1.516;2023-08-06T13:19:28;30.87;9.53
72772;SHT30;60894;42.544;1.516;2023-08-06T13:22:01;30.83;8.80
72772;SHT30;60894;42.544;1.516;2023-08-06T13:24:29;30.26;8.13
72772;SHT30;60894;42.544;1.516;2023-08-06T13:26:56;29.64;8.11
72772;SHT30;60894;42.544;1.516;2023-08-06T13:29:24;28.99;7.22
72772;SHT30;60894;42.544;1.516;2023-08-06T13:31:52;29.54;7.68
72772;SHT30;60894;42.544;1.516;2023-08-06T13:34:20;29.62;8.09
72772;SHT30;60894;42.544;1.516;2023-08-06T13:36:47;30.02;7.53
72772;SHT30;60894;42.544;1.516;2023-08-06T13:39:15;29.53;7.88
72772;SHT30;60894;42.544;1.516;2023-08-06T13:41:43;29.13;8.37
72772;SHT30;60894;42.544;1.516;2023-08-06T13:44:10;29.50;7.91
72772;SHT30;60894;42.544;1.516;2023-08-06T13:46:40;29.02;8.07
72772;SHT30;60894;42.544;1.516;2023-08-06T13:49:07;29.34;8.34
72772;SHT30;60894;42.544;1.516;2023-08-06T13:51:35;28.89;8.04
72772;SHT30;60894;42.544;1.516;2023-08-06T13:54:03;29.24;7.90
72772;SHT30;60894;42.544;1.516;2023-08-06T13:56:32;29.53;9.25
72772;SHT30;60894;42.544;1.516;2023-08-06T13:58:59;29.89;8.80
72772;SHT30;60894;42.544;1.516;2023-08-06T14:01:26;28.69;8.63
72772;SHT30;60894;42.544;1.516;2023-08-06T14:03:53;28.38;9.38
72772;SHT30;60894;42.544;1.516;2023-08-06T14:06:20;28.79;9.07
72772;SHT30;60894;42.544;1.516;2023-08-06T14:08:49;29.14;8.85
72772;SHT30;60894;42.544;1.516;2023-08-06T14:11:16;29.65;9.35
72772;SHT30;60894;42.544;1.516;2023-08-06T14:13:43;29.75;8.78
72772;SHT30;60894;42.544;1.516;2023-08-06T14:16:10;30.17;8.70
72772;SHT30;60894;42.544;1.516;2023-08-06T14:18:37;30.66;8.66
72772;SHT30;60894;42.544;1.516;2023-08-06T14:21:04;28.89;8.95
72772;SHT30;60894;42.544;1.516;2023-08-06T14:23:31;28.70;8.98
72772;SHT30;60894;42.544;1.516;2023-08-06T14:26:00;29.27;9.40
72772;SHT30;60894;42.544;1.516;2023-08-06T14:28:27;29.50;8.94
72772;SHT30;60894;42.544;1.516;2023-08-06T14:30:54;30.05;9.46
72772;SHT30;60894;42.544;1.516;2023-08-06T14:33:21;30.56;9.12
72772;SHT30;60894;42.544;1.516;2023-08-06T14:35:48;30.48;8.62
72772;SHT30;60894;42.544;1.516;2023-08-06T14:38:15;30.13;9.01
72772;SHT30;60894;42.544;1.516;2023-08-06T14:40:43;30.05;8.81
72772;SHT30;60894;42.544;1.516;2023-08-06T14:43:12;29.23;9.40
72772;SHT30;60894;42.544;1.516;2023-08-06T14:45:39;29.55;9.65
72772;SHT30;60894;42.544;1.516;2023-08-06T14:48:06;29.74;9.30
72772;SHT30;60894;42.544;1.516;2023-08-06T14:50:33;30.36;9.65
72772;SHT30;60894;42.544;1.516;2023-08-06T14:53:00;30.25;9.25
72772;SHT30;60894;42.544;1.516;2023-08-06T14:55:28;29.92;9.47
72772;SHT30;60894;42.544;1.516;2023-08-06T14:57:55;29.86;9.86
72772;SHT30;60894;42.544;1.516;2023-08-06T15:00:23;30.22;10.07
72772;SHT30;60894;42.544;1.516;2023-08-06T15:02:50;30.60;9.67
72772;SHT30;60894;42.544;1.516;2023-08-06T15:05:17;31.02;10.10
72772;SHT30;60894;42.544;1.516;2023-08-06T15:07:45;31.26;10.07
72772;SHT30;60894;42.544;1.516;2023-08-06T15:10:13;31.43;9.87
72772;SHT30;60894;42.544;1.516;2023-08-06T15:12:41;30.97;10.32
72772;SHT30;60894;42.544;1.516;2023-08-06T15:15:08;31.14;10.10
72772;SHT30;60894;42.544;1.516;2023-08-06T15:17:37;31.22;10.68
72772;SHT30;60894;42.544;1.516;2023-08-06T15:20:05;31.55;10.69
72772;SHT30;60894;42.544;1.516;2023-08-06T15:22:32;30.78;11.82
72772;SHT30;60894;42.544;1.516;2023-08-06T15:25:00;30.35;10.18
72772;SHT30;60894;42.544;1.516;2023-08-06T15:27:28;30.33;10.39
72772;SHT30;60894;42.544;1.516;2023-08-06T15:29:55;29.64;10.48
72772;SHT30;60894;42.544;1.516;2023-08-06T15:32:22;30.01;12.71
72772;SHT30;60894;42.544;1.516;2023-08-06T15:34:51;30.76;11.82
72772;SHT30;60894;42.544;1.516;2023-08-06T15:37:18;30.84;13.32
72772;SHT30;60894;42.544;1.516;2023-08-06T15:39:45;30.97;12.87